createdAt,value
2022-08-26T00:00:53.817Z,95.70
2022-08-26T00:04:35.716Z,95.90
2022-08-26T00:08:19.722Z,95.90
2022-08-26T00:12:01.595Z,96.20
2022-08-26T00:15:44.034Z,96.00
2022-08-26T00:19:25.856Z,96.10
2022-08-26T00:23:07.927Z,96.10
2022-08-26T00:26:50.374Z,96.20
2022-08-26T00:30:37.025Z,96.40
2022-08-26T00:34:19.449Z,96.40
2022-08-26T00:38:02.505Z,96.50
2022-08-26T00:41:44.651Z,96.80
2022-08-26T00:45:27.923Z,96.80
2022-08-26T00:49:36.990Z,97.00
2022-08-26T00:53:24.041Z,99.20
2022-08-26T00:57:15.947Z,96.90
2022-08-26T01:00:58.571Z,97.80
2022-08-26T01:04:41.869Z,97.00
2022-08-26T01:08:25.522Z,97.20
2022-08-26T01:12:09.631Z,97.20
2022-08-26T01:15:56.620Z,97.10
2022-08-26T01:19:53.355Z,97.90
2022-08-26T01:23:46.017Z,99.00
2022-08-26T01:27:32.684Z,98.40
2022-08-26T01:31:17.512Z,97.70
2022-08-26T01:35:00.321Z,97.90
2022-08-26T01:38:44.747Z,97.80
2022-08-26T01:42:27.451Z,97.90
2022-08-26T01:46:11.223Z,98.20
2022-08-26T01:49:55.891Z,98.50
2022-08-26T01:53:39.032Z,98.90
2022-08-26T01:57:25.145Z,98.70
2022-08-26T02:01:07.082Z,98.60
2022-08-26T02:04:57.321Z,98.40
2022-08-26T02:08:44.633Z,99.10
2022-08-26T02:12:27.655Z,99.20
2022-08-26T02:16:10.987Z,98.80
2022-08-26T02:19:53.498Z,98.80
2022-08-26T02:23:35.808Z,98.90
2022-08-26T02:27:19.577Z,99.10
2022-08-26T02:31:01.772Z,99.30
2022-08-26T02:34:46.841Z,99.20
2022-08-26T02:38:29.451Z,99.90
2022-08-26T02:42:11.722Z,99.60
2022-08-26T02:45:53.593Z,99.80
2022-08-26T02:49:37.529Z,99.90
2022-08-26T02:53:25.061Z,99.90
2022-08-26T02:57:07.291Z,99.90
2022-08-26T03:00:53.163Z,99.90
2022-08-26T03:04:35.585Z,99.90
2022-08-26T03:08:17.460Z,99.90
2022-08-26T03:11:59.712Z,99.90
2022-08-26T03:15:41.565Z,99.90
2022-08-26T03:19:25.053Z,99.90
2022-08-26T03:23:07.742Z,99.90
2022-08-26T03:26:52.410Z,99.90
2022-08-26T03:30:45.039Z,99.90
2022-08-26T03:34:28.122Z,99.90
2022-08-26T03:38:11.197Z,99.90
2022-08-26T03:41:53.009Z,99.90
2022-08-26T03:45:36.364Z,99.90
2022-08-26T03:49:18.888Z,99.90
2022-08-26T03:53:01.100Z,99.90
2022-08-26T03:56:42.918Z,99.90
2022-08-26T04:00:28.635Z,99.90
2022-08-26T04:04:10.478Z,99.90
2022-08-26T04:07:57.339Z,99.90
2022-08-26T04:11:42.286Z,99.90
2022-08-26T04:15:24.240Z,99.90
2022-08-26T04:19:06.598Z,99.90
2022-08-26T04:22:49.133Z,99.90
2022-08-26T04:26:37.005Z,99.90
2022-08-26T04:30:21.916Z,99.90
2022-08-26T04:34:05.307Z,99.90
2022-08-26T04:37:48.910Z,99.90
2022-08-26T04:41:31.644Z,99.90
2022-08-26T04:45:14.059Z,99.90
2022-08-26T04:48:56.069Z,99.90
2022-08-26T04:52:37.860Z,99.90
2022-08-26T04:56:19.653Z,99.90
2022-08-26T05:00:01.478Z,99.90
2022-08-26T05:03:43.432Z,99.90
2022-08-26T05:07:32.506Z,99.90
2022-08-26T05:11:18.087Z,99.90
2022-08-26T05:15:05.429Z,99.90
2022-08-26T05:18:50.133Z,99.90
2022-08-26T05:22:32.024Z,99.90
2022-08-26T05:26:14.222Z,99.90
2022-08-26T05:29:58.421Z,99.90
2022-08-26T05:33:41.317Z,99.90
2022-08-26T05:37:23.889Z,99.90
2022-08-26T05:41:27.565Z,99.90
2022-08-26T05:45:16.808Z,99.90
2022-08-26T05:48:59.606Z,99.90
2022-08-26T05:52:42.685Z,99.90
2022-08-26T05:56:27.948Z,99.90
2022-08-26T06:00:11.641Z,99.90
2022-08-26T06:03:59.695Z,99.90
2022-08-26T06:08:02.304Z,99.90
2022-08-26T06:11:44.118Z,99.90
2022-08-26T06:15:26.073Z,99.90
2022-08-26T06:19:11.271Z,99.90
2022-08-26T06:23:11.768Z,99.90
2022-08-26T06:27:01.630Z,99.90
2022-08-26T06:30:43.756Z,99.90
2022-08-26T06:34:30.440Z,99.90
2022-08-26T06:38:13.927Z,99.90
2022-08-26T06:41:56.485Z,99.90
2022-08-26T06:45:39.136Z,99.90
2022-08-26T06:49:26.668Z,99.90
2022-08-26T06:53:11.314Z,99.90
2022-08-26T06:56:53.643Z,99.90
2022-08-26T07:00:36.677Z,99.90
2022-08-26T07:04:22.304Z,99.90
2022-08-26T07:08:05.564Z,99.90
2022-08-26T07:11:48.160Z,99.90
2022-08-26T07:15:31.655Z,99.90
2022-08-26T07:19:13.676Z,99.90
2022-08-26T07:22:55.481Z,99.90
2022-08-26T07:26:37.665Z,99.90
2022-08-26T07:30:19.842Z,99.90
2022-08-26T07:34:01.940Z,99.90
2022-08-26T07:37:45.609Z,99.90
2022-08-26T07:41:27.452Z,99.90
2022-08-26T07:45:09.306Z,99.90
2022-08-26T07:48:51.258Z,99.90
2022-08-26T07:52:33.084Z,99.90
2022-08-26T07:56:16.144Z,99.90
2022-08-26T07:59:58.649Z,99.90
2022-08-26T08:03:40.680Z,99.90
2022-08-26T08:07:38.556Z,99.90
2022-08-26T08:11:27.242Z,99.90
2022-08-26T08:15:10.247Z,99.90
2022-08-26T08:18:53.512Z,99.90
2022-08-26T08:22:35.604Z,99.90
2022-08-26T08:26:18.422Z,99.90
2022-08-26T08:30:01.025Z,99.90
2022-08-26T08:33:42.797Z,99.90
2022-08-26T08:37:24.754Z,99.90
2022-08-26T08:41:18.759Z,99.90
2022-08-26T08:45:17.573Z,99.90
2022-08-26T08:49:00.490Z,99.90
2022-08-26T08:52:45.744Z,99.90
2022-08-26T08:56:36.961Z,99.90
2022-08-26T09:00:22.038Z,99.90
2022-08-26T09:29:41.706Z,86.20
2022-08-26T09:33:28.842Z,92.60
2022-08-26T09:37:12.011Z,76.90
2022-08-26T09:53:28.484Z,65.20
2022-08-26T09:57:12.006Z,69.30
2022-08-26T10:04:56.420Z,59.30
2022-08-26T10:08:42.101Z,51.10
2022-08-26T10:12:26.338Z,54.80
2022-08-26T10:16:20.373Z,56.80
2022-08-26T10:20:22.835Z,51.70
2022-08-26T10:24:07.917Z,52.50
2022-08-26T10:28:22.545Z,51.90
2022-08-26T10:32:14.359Z,49.50
2022-08-26T10:35:59.700Z,53.00
2022-08-26T10:39:57.160Z,57.10
2022-08-26T10:43:58.580Z,58.20
2022-08-26T10:47:45.169Z,50.40
2022-08-26T10:51:35.493Z,50.80
2022-08-26T10:55:35.578Z,49.70
2022-08-26T10:59:35.324Z,45.30
2022-08-26T11:03:38.847Z,45.00
2022-08-26T11:07:32.446Z,44.10
2022-08-26T11:11:40.093Z,45.80
2022-08-26T11:15:24.404Z,45.70
2022-08-26T11:19:09.427Z,48.20
2022-08-26T11:22:52.795Z,47.70
2022-08-26T11:26:55.436Z,47.80
2022-08-26T11:30:41.282Z,48.10
2022-08-26T11:34:57.032Z,48.60
2022-08-26T11:38:43.301Z,48.40
2022-08-26T11:42:55.637Z,49.20
2022-08-26T11:46:37.699Z,48.90
2022-08-26T11:50:27.310Z,50.00
2022-08-26T11:54:18.317Z,49.30
2022-08-26T11:58:15.949Z,50.10
2022-08-26T12:01:58.954Z,50.70
2022-08-26T12:05:44.886Z,51.00
2022-08-26T12:09:31.674Z,50.80
2022-08-26T12:13:26.451Z,51.20
2022-08-26T12:17:15.345Z,51.40
2022-08-26T12:21:10.139Z,51.90
2022-08-26T12:24:58.957Z,52.20
2022-08-26T12:28:47.022Z,52.40
2022-08-26T12:32:31.329Z,52.50
2022-08-26T12:36:22.586Z,52.60
2022-08-26T12:40:35.420Z,52.50
2022-08-26T12:44:37.374Z,53.00
2022-08-26T12:48:38.626Z,54.60
2022-08-26T12:52:32.604Z,53.80
2022-08-26T12:56:33.140Z,53.10
2022-08-26T13:00:36.124Z,53.70
2022-08-26T13:04:37.215Z,54.20
2022-08-26T13:08:27.607Z,53.40
2022-08-26T13:12:10.866Z,54.10
2022-08-26T13:15:52.636Z,54.00
2022-08-26T13:19:34.435Z,53.40
2022-08-26T13:23:16.445Z,53.10
2022-08-26T13:26:58.417Z,53.90
2022-08-26T13:30:43.040Z,54.20
2022-08-26T13:34:25.078Z,55.10
2022-08-26T13:38:14.554Z,54.60
2022-08-26T13:42:07.175Z,53.10
2022-08-26T13:45:49.426Z,52.80
2022-08-26T13:49:31.174Z,52.60
2022-08-26T13:53:16.735Z,52.80
2022-08-26T13:56:59.479Z,54.00
2022-08-26T14:00:42.074Z,54.40
2022-08-26T14:04:27.271Z,55.50
2022-08-26T14:08:09.741Z,57.20
2022-08-26T14:11:54.857Z,56.90
2022-08-26T14:15:38.137Z,57.00
2022-08-26T14:19:19.920Z,56.80
2022-08-26T14:23:14.469Z,56.60
2022-08-26T14:26:56.441Z,56.70
2022-08-26T14:30:41.822Z,57.80
2022-08-26T14:34:24.704Z,59.50
2022-08-26T14:38:07.195Z,59.50
2022-08-26T14:41:53.944Z,61.00
2022-08-26T14:49:25.266Z,63.50
2022-08-26T14:53:25.434Z,63.10
2022-08-26T14:57:10.173Z,62.60
2022-08-26T15:00:51.952Z,61.80
2022-08-26T15:04:34.126Z,62.10
2022-08-26T15:08:16.746Z,60.90
2022-08-26T15:11:58.983Z,59.80
2022-08-26T15:15:40.780Z,59.70
2022-08-26T15:19:24.969Z,60.00
2022-08-26T15:23:07.416Z,60.30
2022-08-26T15:26:50.244Z,59.40
2022-08-26T15:30:33.396Z,59.00
2022-08-26T15:34:16.967Z,59.70
2022-08-26T15:37:59.152Z,61.20
2022-08-26T15:41:41.153Z,62.00
2022-08-26T15:45:26.036Z,62.20
2022-08-26T15:49:08.348Z,62.00
2022-08-26T15:53:01.327Z,61.80
2022-08-26T15:56:43.783Z,63.30
2022-08-26T16:00:27.027Z,62.60
2022-08-26T16:04:09.702Z,58.40
2022-08-26T16:07:51.465Z,52.60
2022-08-26T16:11:34.438Z,50.30
2022-08-26T16:15:16.742Z,48.40
2022-08-26T16:18:58.788Z,45.80
2022-08-26T16:22:40.621Z,46.60
2022-08-26T16:26:26.889Z,47.10
2022-08-26T16:30:09.257Z,45.60
2022-08-26T16:33:51.435Z,45.00
2022-08-26T16:37:34.575Z,46.90
2022-08-26T16:41:18.408Z,44.70
2022-08-26T16:45:00.225Z,44.70
2022-08-26T16:48:43.799Z,45.10
2022-08-26T16:52:25.808Z,45.40
2022-08-26T16:56:15.007Z,47.40
2022-08-26T16:59:57.194Z,46.90
2022-08-26T17:03:38.994Z,48.10
2022-08-26T17:07:21.916Z,49.30
2022-08-26T17:11:04.215Z,46.70
2022-08-26T17:14:45.998Z,45.70
2022-08-26T17:18:29.887Z,47.10
2022-08-26T17:22:12.382Z,48.00
2022-08-26T17:25:54.214Z,48.40
2022-08-26T17:29:36.088Z,46.60
2022-08-26T17:33:22.095Z,46.80
2022-08-26T17:37:06.489Z,47.40
2022-08-26T17:40:49.580Z,48.10
2022-08-26T17:44:31.758Z,49.00
2022-08-26T17:48:13.658Z,50.20
2022-08-26T17:51:58.438Z,50.30
2022-08-26T17:55:45.210Z,51.00
2022-08-26T18:35:08.576Z,58.60
2022-08-26T18:49:49.657Z,58.10
2022-08-26T18:53:31.643Z,64.00
2022-08-26T18:57:13.848Z,63.20
2022-08-26T19:00:55.633Z,62.70
2022-08-26T19:04:40.763Z,62.60
2022-08-26T19:08:22.776Z,62.90
2022-08-26T19:12:05.070Z,63.00
2022-08-26T19:15:47.226Z,63.20
2022-08-26T19:19:29.430Z,63.50
2022-08-26T19:23:30.496Z,63.90
2022-08-26T19:27:14.976Z,64.30
2022-08-26T19:30:57.025Z,64.40
2022-08-26T19:34:38.859Z,64.90
2022-08-26T19:38:21.051Z,65.70
2022-08-26T19:42:03.284Z,66.20
2022-08-26T19:45:45.318Z,66.80
2022-08-26T19:49:27.241Z,67.50
2022-08-26T19:53:09.556Z,68.00
2022-08-26T19:56:52.520Z,68.50
2022-08-26T20:00:36.680Z,69.20
2022-08-26T20:04:18.812Z,69.50
2022-08-26T20:08:00.865Z,70.20
2022-08-26T20:11:42.952Z,70.60
2022-08-26T20:15:24.831Z,71.10
2022-08-26T20:19:29.249Z,71.80
2022-08-26T20:23:11.146Z,72.30
2022-08-26T20:26:53.868Z,72.70
2022-08-26T20:30:35.677Z,73.40
2022-08-26T20:34:18.706Z,73.70
2022-08-26T20:38:00.756Z,74.40
2022-08-26T20:41:43.857Z,74.70
2022-08-26T20:45:27.363Z,75.20
2022-08-26T20:49:09.763Z,75.90
2022-08-26T20:52:53.481Z,76.10
2022-08-26T20:56:36.576Z,76.60
2022-08-26T21:00:22.681Z,77.70
2022-08-26T21:04:12.088Z,77.70
2022-08-26T21:07:53.919Z,79.30
2022-08-26T21:11:37.556Z,78.60
2022-08-26T21:15:19.698Z,79.20
2022-08-26T21:19:01.641Z,79.20
2022-08-26T21:22:43.807Z,79.60
2022-08-26T21:26:26.301Z,80.20
2022-08-26T21:30:09.151Z,80.50
2022-08-26T21:33:51.551Z,81.20
2022-08-26T21:37:33.396Z,81.40
2022-08-26T21:41:22.077Z,81.60
2022-08-26T21:45:04.960Z,83.10
2022-08-26T21:49:07.661Z,82.60
2022-08-26T21:52:49.454Z,84.40
2022-08-26T21:56:33.594Z,83.20
2022-08-26T22:00:16.937Z,84.50
2022-08-26T22:03:58.941Z,84.00
2022-08-26T22:07:40.722Z,84.20
2022-08-26T22:11:22.853Z,84.30
2022-08-26T22:15:05.672Z,84.50
2022-08-26T22:18:47.576Z,85.30
2022-08-26T22:22:29.527Z,84.80
2022-08-26T22:26:13.447Z,85.10
2022-08-26T22:29:55.281Z,86.30
2022-08-26T22:33:38.400Z,85.90
2022-08-26T22:37:20.453Z,87.30
2022-08-26T22:41:05.430Z,87.10
2022-08-26T22:44:50.043Z,87.90
2022-08-26T22:48:32.062Z,88.60
2022-08-26T22:52:13.849Z,89.30
2022-08-26T22:55:55.798Z,90.10
2022-08-26T22:59:37.632Z,90.60
2022-08-26T23:03:19.545Z,91.00
2022-08-26T23:07:01.391Z,91.20
2022-08-26T23:10:46.535Z,91.40
2022-08-26T23:14:28.391Z,92.10
2022-08-26T23:18:11.365Z,91.60
2022-08-26T23:21:53.228Z,91.90
2022-08-26T23:25:35.361Z,91.90
2022-08-26T23:29:17.202Z,92.20
2022-08-26T23:32:59.228Z,92.50
2022-08-26T23:36:42.634Z,92.80
2022-08-26T23:40:33.267Z,93.10
2022-08-26T23:44:15.117Z,94.50
2022-08-26T23:47:56.978Z,93.40
2022-08-26T23:51:57.603Z,93.60
2022-08-26T23:55:39.570Z,93.80
2022-08-26T23:59:21.507Z,94.20
